createdAt,value
2023-06-19T05:01:02.808Z,22.94
2023-06-19T05:02:02.716Z,22.92
2023-06-19T05:03:02.743Z,22.95
2023-06-19T05:04:02.700Z,22.95
2023-06-19T05:05:02.677Z,23.00
2023-06-19T05:06:02.690Z,22.95
2023-06-19T05:07:02.666Z,22.94
2023-06-19T05:08:02.669Z,22.95
2023-06-19T05:09:02.640Z,22.94
2023-06-19T05:10:02.624Z,22.90
2023-06-19T05:11:02.666Z,22.90
2023-06-19T05:12:07.634Z,23.02
2023-06-19T05:13:02.589Z,22.98
2023-06-19T05:14:02.592Z,23.02
2023-06-19T05:15:02.590Z,23.09
2023-06-19T05:16:02.598Z,23.13
2023-06-19T05:17:02.623Z,23.05
2023-06-19T05:18:02.579Z,23.13
2023-06-19T05:19:02.545Z,23.17
2023-06-19T05:20:02.519Z,23.16
2023-06-19T05:21:02.516Z,23.25
2023-06-19T05:22:02.500Z,23.25
2023-06-19T05:23:07.498Z,23.28
2023-06-19T05:24:02.484Z,23.36
2023-06-19T05:25:02.502Z,23.36
2023-06-19T05:26:02.535Z,23.35
2023-06-19T05:27:02.434Z,23.36
2023-06-19T05:28:04.953Z,23.39
2023-06-19T05:29:02.411Z,23.32
2023-06-19T05:30:02.422Z,23.42
2023-06-19T05:31:02.404Z,23.39
2023-06-19T05:32:02.444Z,23.38
2023-06-19T05:33:02.468Z,23.43
2023-06-19T05:34:07.395Z,23.35
2023-06-19T05:35:02.380Z,23.39
2023-06-19T05:36:02.344Z,23.43
2023-06-19T05:37:02.323Z,23.48
2023-06-19T05:38:02.365Z,23.43
2023-06-19T05:39:02.312Z,23.40
2023-06-19T05:40:02.345Z,23.43
2023-06-19T05:41:02.283Z,23.35
2023-06-19T05:42:02.271Z,23.39
2023-06-19T05:43:02.257Z,23.33
2023-06-19T05:44:02.280Z,23.31
2023-06-19T05:45:07.332Z,23.27
2023-06-19T05:46:02.274Z,23.31
2023-06-19T05:47:02.216Z,23.17
2023-06-19T05:48:02.272Z,23.31
2023-06-19T05:49:02.228Z,23.19
2023-06-19T05:50:02.201Z,23.25
2023-06-19T05:51:02.216Z,23.40
2023-06-19T05:52:02.232Z,23.42
2023-06-19T05:53:02.150Z,23.46
2023-06-19T05:54:02.165Z,23.58
2023-06-19T05:55:02.182Z,23.58
2023-06-19T05:56:07.136Z,23.55
2023-06-19T05:57:02.110Z,23.66
2023-06-19T05:58:02.153Z,23.54
2023-06-19T05:59:02.099Z,23.54
2023-06-19T06:00:02.085Z,23.65
2023-06-19T06:01:02.093Z,23.65
2023-06-19T06:02:02.055Z,23.68
2023-06-19T06:03:02.077Z,23.72
2023-06-19T06:04:02.128Z,23.76
2023-06-19T06:05:02.165Z,23.63
2023-06-19T06:06:02.029Z,23.69
2023-06-19T06:07:07.023Z,23.68
2023-06-19T06:08:01.994Z,23.65
2023-06-19T06:09:01.974Z,23.61
2023-06-19T06:10:01.969Z,23.72
2023-06-19T06:11:01.978Z,23.70
2023-06-19T06:12:01.992Z,23.78
2023-06-19T06:13:01.940Z,23.79
2023-06-19T06:14:01.932Z,23.88
2023-06-19T06:15:01.908Z,23.95
2023-06-19T06:16:01.897Z,23.98
2023-06-19T06:17:02.010Z,24.00
2023-06-19T06:18:06.984Z,23.97
2023-06-19T06:19:01.869Z,24.00
2023-06-19T06:20:01.852Z,23.98
2023-06-19T06:21:01.882Z,23.97
2023-06-19T06:22:01.859Z,24.03
2023-06-19T06:23:01.842Z,24.03
2023-06-19T06:24:01.826Z,23.93
2023-06-19T06:25:01.888Z,23.90
2023-06-19T06:26:01.785Z,23.73
2023-06-19T06:27:01.784Z,23.88
2023-06-19T06:28:01.770Z,23.87
2023-06-19T06:29:06.773Z,23.97
2023-06-19T06:30:01.773Z,24.18
2023-06-19T06:31:01.756Z,24.25
2023-06-19T06:32:01.814Z,24.37
2023-06-19T06:33:01.757Z,24.60
2023-06-19T06:34:01.705Z,24.83
2023-06-19T06:35:01.683Z,24.93
2023-06-19T06:36:01.680Z,25.10
2023-06-19T06:37:06.414Z,25.36
2023-06-19T06:38:02.762Z,25.62
2023-06-19T06:39:01.653Z,25.92
2023-06-19T06:40:06.713Z,26.09
2023-06-19T06:41:01.627Z,26.32
2023-06-19T06:42:01.626Z,26.48
2023-06-19T06:43:01.595Z,26.73
2023-06-19T06:44:01.672Z,26.94
2023-06-19T06:45:01.570Z,26.76
2023-06-19T06:46:01.601Z,26.69
2023-06-19T06:47:01.561Z,26.67
2023-06-19T06:48:01.613Z,26.39
2023-06-19T06:49:01.531Z,26.23
2023-06-19T06:50:01.569Z,26.05
2023-06-19T06:51:06.557Z,25.92
2023-06-19T06:52:01.499Z,25.94
2023-06-19T06:53:01.606Z,25.77
2023-06-19T06:54:01.478Z,25.67
2023-06-19T06:55:01.478Z,25.64
2023-06-19T06:56:01.460Z,25.67
2023-06-19T06:57:01.487Z,25.76
2023-06-19T06:58:01.501Z,25.64
2023-06-19T06:59:01.415Z,25.64
2023-06-19T07:00:01.426Z,25.54
2023-06-19T07:01:01.432Z,25.55
2023-06-19T07:02:06.485Z,25.38
2023-06-19T07:03:01.494Z,25.51
2023-06-19T07:04:01.392Z,25.36
2023-06-19T07:05:01.378Z,25.35
2023-06-19T07:06:01.377Z,25.40
2023-06-19T07:07:01.332Z,25.32
2023-06-19T07:08:01.325Z,25.25
2023-06-19T07:09:01.345Z,25.30
2023-06-19T07:10:01.371Z,25.40
2023-06-19T07:11:01.290Z,25.47
2023-06-19T07:12:01.281Z,25.57
2023-06-19T07:13:06.289Z,25.54
2023-06-19T07:14:01.269Z,25.38
2023-06-19T07:15:01.255Z,25.39
2023-06-19T07:16:01.257Z,25.39
2023-06-19T07:17:01.333Z,25.40
2023-06-19T07:18:01.318Z,25.55
2023-06-19T07:19:01.213Z,25.51
2023-06-19T07:20:01.192Z,25.51
2023-06-19T07:21:01.183Z,25.55
2023-06-19T07:22:01.192Z,25.65
2023-06-19T07:23:01.215Z,25.70
2023-06-19T07:24:06.241Z,25.69
2023-06-19T07:25:01.146Z,25.77
2023-06-19T07:26:01.134Z,25.75
2023-06-19T07:27:01.118Z,25.76
2023-06-19T07:28:01.122Z,25.75
2023-06-19T07:29:01.120Z,25.76
2023-06-19T07:30:01.098Z,25.82
2023-06-19T07:31:01.073Z,25.76
2023-06-19T07:32:01.078Z,25.82
2023-06-19T07:33:01.135Z,25.90
2023-06-19T07:34:01.046Z,25.88
2023-06-19T07:35:06.102Z,25.87
2023-06-19T07:36:01.017Z,25.87
2023-06-19T07:37:01.021Z,25.91
2023-06-19T07:38:01.007Z,26.01
2023-06-19T07:39:00.994Z,26.01
2023-06-19T07:40:01.061Z,26.01
2023-06-19T07:41:01.002Z,25.91
2023-06-19T07:42:00.970Z,25.88
2023-06-19T07:43:00.940Z,25.91
2023-06-19T07:44:00.945Z,25.85
2023-06-19T07:45:00.920Z,25.88
2023-06-19T07:46:05.952Z,25.79
2023-06-19T07:47:00.980Z,25.85
2023-06-19T07:48:00.950Z,25.97
2023-06-19T07:49:00.897Z,25.77
2023-06-19T07:50:00.874Z,25.76
2023-06-19T07:51:00.869Z,25.75
2023-06-19T07:52:00.861Z,25.72
2023-06-19T07:53:00.880Z,25.70
2023-06-19T07:54:00.828Z,25.47
2023-06-19T07:55:00.819Z,25.55
2023-06-19T07:56:00.833Z,25.55
2023-06-19T07:57:05.815Z,25.40
2023-06-19T07:58:00.793Z,25.30
2023-06-19T07:59:00.815Z,25.28
2023-06-19T08:00:00.786Z,25.21
2023-06-19T08:01:00.752Z,25.18
2023-06-19T08:02:00.757Z,25.15
2023-06-19T08:03:00.830Z,25.02
2023-06-19T08:04:00.759Z,25.06
2023-06-19T08:05:00.767Z,24.99
2023-06-19T08:06:00.762Z,24.93
2023-06-19T08:07:00.717Z,24.85
2023-06-19T08:08:05.708Z,24.84
2023-06-19T08:09:00.659Z,24.84
2023-06-19T08:10:12.373Z,24.84
2023-06-19T08:11:00.635Z,24.87
2023-06-19T08:12:00.734Z,24.91
2023-06-19T08:13:00.643Z,24.87
2023-06-19T08:14:00.612Z,24.88
2023-06-19T08:15:00.598Z,24.87
2023-06-19T08:16:00.582Z,24.85
2023-06-19T08:17:00.625Z,24.78
2023-06-19T08:18:00.607Z,24.80
2023-06-19T08:19:05.586Z,24.80
2023-06-19T08:20:00.580Z,24.77
2023-06-19T08:21:00.518Z,24.80
2023-06-19T08:22:00.533Z,24.80
2023-06-19T08:23:00.534Z,24.80
2023-06-19T08:24:00.528Z,24.84
2023-06-19T08:25:00.476Z,24.88
2023-06-19T08:26:00.515Z,24.88
2023-06-19T08:27:00.461Z,24.85
2023-06-19T08:28:00.472Z,24.84
2023-06-19T08:29:00.454Z,24.83
2023-06-19T08:30:05.441Z,24.84
2023-06-19T08:31:00.411Z,24.88
2023-06-19T08:32:00.448Z,24.91
2023-06-19T08:33:00.489Z,25.03
2023-06-19T08:34:00.391Z,25.02
2023-06-19T08:35:00.378Z,25.10
2023-06-19T08:36:00.362Z,25.15
2023-06-19T08:37:00.346Z,25.17
2023-06-19T08:38:00.347Z,25.21
2023-06-19T08:39:00.374Z,25.23
2023-06-19T08:40:00.310Z,25.25
2023-06-19T08:41:05.336Z,25.14
2023-06-19T08:42:00.292Z,25.23
2023-06-19T08:43:00.285Z,25.15
2023-06-19T08:44:00.289Z,25.28
2023-06-19T08:45:00.306Z,25.27
2023-06-19T08:46:00.327Z,25.23
2023-06-19T08:47:00.237Z,25.25
2023-06-19T08:48:00.340Z,25.39
2023-06-19T08:49:00.213Z,25.55
2023-06-19T08:50:02.372Z,25.64
2023-06-19T08:51:00.210Z,25.75
2023-06-19T08:52:05.215Z,25.88
2023-06-19T08:53:00.262Z,26.06
2023-06-19T08:54:00.174Z,26.18
2023-06-19T08:55:00.189Z,26.26
2023-06-19T08:56:00.158Z,26.28
2023-06-19T08:57:00.180Z,26.35
2023-06-19T08:58:00.129Z,26.33
2023-06-19T08:59:00.171Z,26.33
2023-06-19T09:00:00.342Z,26.28
2023-06-19T09:01:00.124Z,26.33
2023-06-19T09:02:00.154Z,26.25
2023-06-19T09:03:14.324Z,26.13
2023-06-19T09:04:00.210Z,26.09
2023-06-19T09:05:00.041Z,26.05
2023-06-19T09:06:00.142Z,26.02
2023-06-19T09:07:00.205Z,26.01
2023-06-19T09:08:00.108Z,26.02
2023-06-19T09:09:00.008Z,26.06
2023-06-19T09:09:59.992Z,26.23
2023-06-19T09:10:59.984Z,26.26
2023-06-19T09:11:59.988Z,26.26
2023-06-19T09:12:59.981Z,26.30
2023-06-19T09:14:05.028Z,26.33
2023-06-19T09:14:59.975Z,26.32
2023-06-19T09:16:00.071Z,26.21
2023-06-19T09:16:59.942Z,26.25
2023-06-19T09:17:59.985Z,26.30
2023-06-19T09:18:59.898Z,26.32
2023-06-19T09:19:59.900Z,26.32
2023-06-19T09:20:59.948Z,26.40
2023-06-19T09:21:59.857Z,26.37
2023-06-19T09:22:59.850Z,26.50
2023-06-19T09:23:59.850Z,26.37
2023-06-19T09:25:04.865Z,26.32
2023-06-19T09:25:59.900Z,26.35
2023-06-19T09:26:59.803Z,26.25
2023-06-19T09:27:59.797Z,26.18
2023-06-19T09:28:59.786Z,26.15
2023-06-19T09:29:59.788Z,26.18
2023-06-19T09:30:59.767Z,26.30
2023-06-19T09:31:59.793Z,26.54
2023-06-19T09:32:59.804Z,26.94
2023-06-19T09:33:59.850Z,26.97
2023-06-19T09:35:00.007Z,27.12
2023-06-19T09:36:04.885Z,27.17
2023-06-19T09:36:59.701Z,27.25
2023-06-19T09:37:59.728Z,27.44
2023-06-19T09:38:59.851Z,27.62
2023-06-19T09:39:59.681Z,27.57
2023-06-19T09:40:59.656Z,27.43
2023-06-19T09:41:59.657Z,27.17
2023-06-19T09:42:59.630Z,26.97
2023-06-19T09:43:59.638Z,26.88
2023-06-19T09:44:59.645Z,26.69
2023-06-19T09:45:59.606Z,26.67
2023-06-19T09:47:04.689Z,26.82
2023-06-19T09:47:59.705Z,27.00
2023-06-19T09:48:59.598Z,27.10
2023-06-19T09:49:59.554Z,27.03
2023-06-19T09:50:59.548Z,26.89
2023-06-19T09:51:59.538Z,26.73
2023-06-19T09:52:59.518Z,26.81
2023-06-19T09:53:59.573Z,26.92
2023-06-19T09:54:59.526Z,27.04
2023-06-19T09:55:59.507Z,27.00
2023-06-19T09:56:59.485Z,27.04
2023-06-19T09:57:59.490Z,26.97
2023-06-19T09:58:59.471Z,27.03
2023-06-19T10:00:04.562Z,27.10
2023-06-19T10:00:59.450Z,27.24
2023-06-19T10:01:59.479Z,27.19
2023-06-19T10:02:59.562Z,27.14
2023-06-19T10:03:59.402Z,27.13
2023-06-19T10:04:59.389Z,27.07
2023-06-19T10:05:59.431Z,26.95
2023-06-19T10:06:59.367Z,26.89
2023-06-19T10:07:59.366Z,26.99
2023-06-19T10:08:59.343Z,27.00
2023-06-19T10:09:59.334Z,26.95
2023-06-19T10:10:59.329Z,27.00
2023-06-19T10:11:59.370Z,27.04
2023-06-19T10:13:04.332Z,27.07
2023-06-19T10:13:59.294Z,27.21
2023-06-19T10:14:59.280Z,27.25
2023-06-19T10:15:59.292Z,27.31
2023-06-19T10:16:59.296Z,27.50
2023-06-19T10:17:59.361Z,27.44
2023-06-19T10:18:59.287Z,27.50
2023-06-19T10:19:59.234Z,27.50
2023-06-19T10:20:59.339Z,27.44
2023-06-19T10:22:01.397Z,27.49
2023-06-19T10:22:59.192Z,27.55
2023-06-19T10:24:04.309Z,27.44
2023-06-19T10:24:59.184Z,27.60
2023-06-19T10:25:59.172Z,27.57
2023-06-19T10:26:59.167Z,27.51
2023-06-19T10:27:59.133Z,27.59
2023-06-19T10:28:59.128Z,27.62
2023-06-19T10:30:10.119Z,27.70
2023-06-19T10:30:59.173Z,27.81
2023-06-19T10:31:59.102Z,27.75
2023-06-19T10:32:59.113Z,27.78
2023-06-19T10:33:59.073Z,27.63
2023-06-19T10:35:04.102Z,27.69
2023-06-19T10:35:59.105Z,27.72
2023-06-19T10:36:59.058Z,27.67
2023-06-19T10:37:59.034Z,27.70
2023-06-19T10:38:59.019Z,27.82
2023-06-19T10:39:59.004Z,27.82
2023-06-19T10:40:59.029Z,27.92
2023-06-19T10:41:59.037Z,28.02
2023-06-19T10:42:58.972Z,28.09
2023-06-19T10:43:58.995Z,27.99
2023-06-19T10:44:58.960Z,27.97
2023-06-19T10:46:04.040Z,28.00
2023-06-19T10:46:58.967Z,27.99
2023-06-19T10:47:59.014Z,28.03
2023-06-19T10:48:58.915Z,28.04
2023-06-19T10:49:58.911Z,27.94
2023-06-19T10:50:58.926Z,28.04
2023-06-19T10:51:58.879Z,28.11
2023-06-19T10:52:58.871Z,28.19
2023-06-19T10:53:58.903Z,28.37
2023-06-19T10:54:58.856Z,28.36
2023-06-19T10:55:58.832Z,28.39
2023-06-19T10:56:58.832Z,28.40
2023-06-19T10:57:58.813Z,28.33
2023-06-19T10:59:03.867Z,28.43
2023-06-19T10:59:58.861Z,28.55
2023-06-19T11:00:58.898Z,28.56
2023-06-19T11:01:58.783Z,28.59
2023-06-19T11:02:59.045Z,28.61
2023-06-19T11:03:58.759Z,28.56
2023-06-19T11:04:58.741Z,28.67
2023-06-19T11:05:58.721Z,28.68
2023-06-19T11:06:58.814Z,28.80
2023-06-19T11:07:58.721Z,28.96
2023-06-19T11:08:58.702Z,29.12
2023-06-19T11:09:58.691Z,29.33
2023-06-19T11:10:58.683Z,29.49
2023-06-19T11:12:03.679Z,29.64
2023-06-19T11:12:58.688Z,29.65
2023-06-19T11:13:58.813Z,29.68
2023-06-19T11:14:58.663Z,29.65
2023-06-19T11:15:58.681Z,29.78
2023-06-19T11:16:58.643Z,29.85
2023-06-19T11:17:58.635Z,30.02
2023-06-19T11:18:58.587Z,30.00
2023-06-19T11:19:58.662Z,30.29
2023-06-19T11:20:59.930Z,30.29
2023-06-19T11:21:58.590Z,30.38
2023-06-19T11:22:58.589Z,30.53
2023-06-19T11:23:58.579Z,30.60
2023-06-19T11:25:03.549Z,30.79
2023-06-19T11:25:58.533Z,30.88
2023-06-19T11:26:58.607Z,30.99
2023-06-19T11:27:58.498Z,30.95
2023-06-19T11:28:58.478Z,31.07
2023-06-19T11:29:58.466Z,31.12
2023-06-19T11:30:58.488Z,31.12
2023-06-19T11:31:58.457Z,31.07
2023-06-19T11:32:58.576Z,31.04
2023-06-19T11:33:58.430Z,31.28
2023-06-19T11:34:58.432Z,31.48
2023-06-19T11:35:58.406Z,31.65
2023-06-19T11:36:58.403Z,31.75
2023-06-19T11:38:03.452Z,31.96
2023-06-19T11:38:58.528Z,32.07
2023-06-19T11:39:58.360Z,32.23
2023-06-19T11:40:58.387Z,32.28
2023-06-19T11:41:58.359Z,32.03
2023-06-19T11:42:58.345Z,32.00
2023-06-19T11:43:58.318Z,32.03
2023-06-19T11:44:58.451Z,32.10
2023-06-19T11:45:58.361Z,32.00
2023-06-19T11:46:58.311Z,31.93
2023-06-19T11:47:58.418Z,31.96
2023-06-19T11:49:07.308Z,32.29
2023-06-19T11:49:58.261Z,32.52
2023-06-19T11:50:58.390Z,32.50
2023-06-19T11:51:58.246Z,32.60
2023-06-19T11:52:58.257Z,32.74
2023-06-19T11:53:58.257Z,32.65
2023-06-19T11:54:58.218Z,32.69
2023-06-19T11:55:58.231Z,32.69
2023-06-19T11:56:58.268Z,32.57
2023-06-19T11:57:58.182Z,32.50
2023-06-19T11:58:58.177Z,31.75
2023-06-19T12:00:03.195Z,31.34
2023-06-19T12:00:58.175Z,31.32
2023-06-19T12:01:58.192Z,31.23
2023-06-19T12:02:58.362Z,31.07
2023-06-19T12:03:58.179Z,30.99
2023-06-19T12:04:58.123Z,30.75
2023-06-19T12:05:58.108Z,30.55
2023-06-19T12:06:58.113Z,30.64
2023-06-19T12:07:58.087Z,30.62
2023-06-19T12:08:58.167Z,30.45
2023-06-19T12:09:58.095Z,30.34
2023-06-19T12:11:03.074Z,30.46
2023-06-19T12:11:58.038Z,30.54
2023-06-19T12:12:58.030Z,30.38
2023-06-19T12:13:58.025Z,30.37
2023-06-19T12:14:58.103Z,30.37
2023-06-19T12:15:57.998Z,30.32
2023-06-19T12:16:58.028Z,30.07
2023-06-19T12:17:58.003Z,29.89
2023-06-19T12:18:58.089Z,29.60
2023-06-19T12:19:57.956Z,29.57
2023-06-19T12:20:57.994Z,29.36
2023-06-19T12:22:02.983Z,29.30
2023-06-19T12:22:57.951Z,29.31
2023-06-19T12:23:57.971Z,29.46
2023-06-19T12:24:57.910Z,29.48
2023-06-19T12:25:57.916Z,29.45
2023-06-19T12:26:57.938Z,29.60
2023-06-19T12:27:57.881Z,29.67
2023-06-19T12:28:57.866Z,29.57
2023-06-19T12:29:57.846Z,29.43
2023-06-19T12:30:57.920Z,29.45
2023-06-19T12:31:57.829Z,29.46
2023-06-19T12:32:57.924Z,29.55
2023-06-19T12:34:00.229Z,29.55
2023-06-19T12:35:02.815Z,29.64
2023-06-19T12:35:57.799Z,29.67
2023-06-19T12:36:57.820Z,29.70
2023-06-19T12:37:57.790Z,29.76
2023-06-19T12:38:57.759Z,29.74
2023-06-19T12:39:57.825Z,29.73
2023-06-19T12:40:57.739Z,29.68
2023-06-19T12:41:57.800Z,29.53
2023-06-19T12:42:57.728Z,29.53
2023-06-19T12:43:57.704Z,29.63
2023-06-19T12:44:57.679Z,29.52
2023-06-19T12:45:57.824Z,29.53
2023-06-19T12:46:57.674Z,29.57
2023-06-19T12:48:02.687Z,29.58
2023-06-19T12:48:57.663Z,29.48
2023-06-19T12:49:57.651Z,29.68
2023-06-19T12:50:57.619Z,29.67
2023-06-19T12:51:57.711Z,29.67
2023-06-19T12:52:57.593Z,29.68
2023-06-19T12:53:57.588Z,29.65
2023-06-19T12:54:57.578Z,29.63
2023-06-19T12:56:02.206Z,29.64
2023-06-19T12:56:57.570Z,29.58
2023-06-19T12:57:57.627Z,29.58
2023-06-19T12:58:57.529Z,29.42
2023-06-19T12:59:57.519Z,29.39
2023-06-19T13:01:02.548Z,29.34
2023-06-19T13:01:57.534Z,29.19
2023-06-19T13:02:57.606Z,29.15
2023-06-19T13:03:57.644Z,29.16
2023-06-19T13:04:57.471Z,29.12
2023-06-19T13:05:57.466Z,28.92
2023-06-19T13:06:57.458Z,28.90
2023-06-19T13:07:57.478Z,28.95
2023-06-19T13:08:57.430Z,28.93
2023-06-19T13:09:57.494Z,29.12
2023-06-19T13:10:57.490Z,29.28
2023-06-19T13:11:57.482Z,29.36
2023-06-19T13:12:57.484Z,29.53
2023-06-19T13:14:02.425Z,29.63
2023-06-19T13:14:57.395Z,29.64
2023-06-19T13:15:57.534Z,29.80
2023-06-19T13:16:57.438Z,29.78
2023-06-19T13:17:57.377Z,29.97
2023-06-19T13:18:57.333Z,29.97
2023-06-19T13:19:57.308Z,30.05
2023-06-19T13:20:57.297Z,30.07
2023-06-19T13:21:57.380Z,30.15
2023-06-19T13:22:57.290Z,30.15
2023-06-19T13:23:57.291Z,30.07
2023-06-19T13:24:57.261Z,30.16
2023-06-19T13:25:57.250Z,30.11
2023-06-19T13:27:02.284Z,29.98
2023-06-19T13:27:57.298Z,29.90
2023-06-19T13:28:57.240Z,29.95
2023-06-19T13:29:57.227Z,29.79
2023-06-19T13:30:57.192Z,29.82
2023-06-19T13:31:57.191Z,29.76
2023-06-19T13:32:57.213Z,29.76
2023-06-19T13:33:57.204Z,29.70
2023-06-19T13:34:57.197Z,29.58
2023-06-19T13:35:57.152Z,29.65
2023-06-19T13:36:57.136Z,29.63
2023-06-19T13:37:57.129Z,29.65
2023-06-19T13:38:57.114Z,29.64
2023-06-19T13:40:02.112Z,29.76
2023-06-19T13:40:57.112Z,29.78
2023-06-19T13:41:57.220Z,29.79
2023-06-19T13:42:57.062Z,29.82
2023-06-19T13:43:57.053Z,29.71
2023-06-19T13:44:57.052Z,29.76
2023-06-19T13:45:57.086Z,29.63
2023-06-19T13:46:57.076Z,29.57
2023-06-19T13:47:57.073Z,29.37
2023-06-19T13:48:57.006Z,29.49
2023-06-19T13:49:56.986Z,29.45
2023-06-19T13:50:57.009Z,29.46
2023-06-19T13:51:56.972Z,29.41
2023-06-19T13:53:01.976Z,29.37
2023-06-19T13:53:57.063Z,29.30
2023-06-19T13:54:56.958Z,29.30
2023-06-19T13:55:56.935Z,29.31
2023-06-19T13:56:56.912Z,29.24
2023-06-19T13:57:56.903Z,29.28
2023-06-19T13:58:56.888Z,29.24
2023-06-19T13:59:56.913Z,29.19
2023-06-19T14:00:57.050Z,29.14
2023-06-19T14:01:56.909Z,29.09
2023-06-19T14:02:56.923Z,29.11
2023-06-19T14:03:56.831Z,29.05
2023-06-19T14:04:56.839Z,29.04
2023-06-19T14:06:01.834Z,29.19
2023-06-19T14:06:56.874Z,29.14
2023-06-19T14:07:56.910Z,29.18
2023-06-19T14:08:56.791Z,29.23
2023-06-19T14:09:56.775Z,29.28
2023-06-19T14:10:56.768Z,29.31
2023-06-19T14:11:56.761Z,29.30
2023-06-19T14:12:56.736Z,29.16
2023-06-19T14:13:56.747Z,29.27
2023-06-19T14:14:56.749Z,29.30
2023-06-19T14:15:56.720Z,29.27
2023-06-19T14:16:56.708Z,29.31
2023-06-19T14:17:56.775Z,29.34
2023-06-19T14:19:01.710Z,29.31
2023-06-19T14:19:56.714Z,29.36
2023-06-19T14:20:56.743Z,29.39
2023-06-19T14:21:56.641Z,29.41
2023-06-19T14:22:56.635Z,29.34
2023-06-19T14:23:56.745Z,29.19
2023-06-19T14:24:56.612Z,29.11
2023-06-19T14:25:56.616Z,29.06
2023-06-19T14:26:56.680Z,29.02
2023-06-19T14:27:56.584Z,29.00
2023-06-19T14:28:56.575Z,28.89
2023-06-19T14:29:56.556Z,28.95
2023-06-19T14:30:56.547Z,28.96
2023-06-19T14:32:01.555Z,28.88
2023-06-19T14:32:56.692Z,28.93
2023-06-19T14:33:56.557Z,28.86
2023-06-19T14:34:56.509Z,28.93
2023-06-19T14:35:56.497Z,29.02
2023-06-19T14:36:56.484Z,28.93
2023-06-19T14:37:56.511Z,29.02
2023-06-19T14:38:56.546Z,28.93
2023-06-19T14:39:56.446Z,29.06
2023-06-19T14:40:56.441Z,29.05
2023-06-19T14:41:56.427Z,29.14
2023-06-19T14:42:56.423Z,29.15
2023-06-19T14:43:56.415Z,29.16
2023-06-19T14:45:01.507Z,29.21
2023-06-19T14:45:56.386Z,29.30
2023-06-19T14:46:56.397Z,29.31
2023-06-19T14:47:56.390Z,29.31
2023-06-19T14:48:56.351Z,29.33
2023-06-19T14:49:56.380Z,29.46
2023-06-19T14:50:56.409Z,29.43
2023-06-19T14:51:56.332Z,29.48
2023-06-19T14:52:56.308Z,29.51
2023-06-19T14:53:56.297Z,29.39
2023-06-19T14:54:59.268Z,29.30
2023-06-19T14:56:01.341Z,29.37
2023-06-19T14:56:56.382Z,29.34
2023-06-19T14:57:56.278Z,29.33
2023-06-19T14:58:56.241Z,29.42
2023-06-19T14:59:56.243Z,29.31
2023-06-19T15:00:56.263Z,29.33
2023-06-19T15:01:56.278Z,29.39
2023-06-19T15:02:56.359Z,29.33
2023-06-19T15:03:56.309Z,29.28
2023-06-19T15:05:05.663Z,29.24
2023-06-19T15:05:57.221Z,29.24
2023-06-19T15:06:56.159Z,29.26
2023-06-19T15:07:56.177Z,29.14
2023-06-19T15:09:03.132Z,29.19
2023-06-19T15:09:56.125Z,29.02
2023-06-19T15:10:56.125Z,29.06
2023-06-19T15:11:56.120Z,29.06
2023-06-19T15:12:56.114Z,29.02
2023-06-19T15:13:56.106Z,29.08
2023-06-19T15:14:56.089Z,29.11
2023-06-19T15:15:56.070Z,29.09
2023-06-19T15:16:56.060Z,29.16
2023-06-19T15:17:56.126Z,29.06
2023-06-19T15:18:56.067Z,29.06
2023-06-19T15:20:01.106Z,29.09
2023-06-19T15:20:56.036Z,29.04
2023-06-19T15:21:56.014Z,29.05
2023-06-19T15:22:55.989Z,29.04
2023-06-19T15:23:56.025Z,29.08
2023-06-19T15:24:55.978Z,29.12
2023-06-19T15:25:56.054Z,29.16
2023-06-19T15:26:55.940Z,29.23
2023-06-19T15:27:55.933Z,29.16
2023-06-19T15:28:55.925Z,29.21
2023-06-19T15:29:55.924Z,29.21
2023-06-19T15:31:00.921Z,29.23
2023-06-19T15:31:55.942Z,29.28
2023-06-19T15:32:55.924Z,29.30
2023-06-19T15:33:55.893Z,29.23
2023-06-19T15:34:55.870Z,29.19
2023-06-19T15:35:55.851Z,29.14
2023-06-19T15:36:55.832Z,29.19
2023-06-19T15:37:55.926Z,29.18
2023-06-19T15:38:55.840Z,29.23
2023-06-19T15:39:55.966Z,29.16
2023-06-19T15:40:55.792Z,29.15
2023-06-19T15:42:00.806Z,29.15
2023-06-19T15:42:55.779Z,29.14
2023-06-19T15:43:55.779Z,29.12
2023-06-19T15:44:55.743Z,29.11
2023-06-19T15:45:55.857Z,29.06
2023-06-19T15:46:55.729Z,29.09
2023-06-19T15:47:55.772Z,29.14
2023-06-19T15:48:55.711Z,29.23
2023-06-19T15:49:55.696Z,29.23
2023-06-19T15:50:55.685Z,29.28
2023-06-19T15:51:55.703Z,29.30
2023-06-19T15:53:00.780Z,29.30
2023-06-19T15:53:55.668Z,29.33
2023-06-19T15:54:55.642Z,29.39
2023-06-19T15:55:55.632Z,29.37
2023-06-19T15:56:58.041Z,29.46
2023-06-19T15:57:55.630Z,29.41
2023-06-19T15:58:55.628Z,29.41
2023-06-19T15:59:55.588Z,29.52
2023-06-19T16:00:55.584Z,29.52
2023-06-19T16:01:55.718Z,29.48
2023-06-19T16:02:55.639Z,29.55
2023-06-19T16:04:00.662Z,29.60
2023-06-19T16:04:55.582Z,29.58
2023-06-19T16:06:06.006Z,29.61
2023-06-19T16:06:56.518Z,29.68
2023-06-19T16:07:55.525Z,29.55
2023-06-19T16:08:55.508Z,29.60
2023-06-19T16:09:56.123Z,29.60
2023-06-19T16:10:55.526Z,29.61
2023-06-19T16:11:55.462Z,29.63
2023-06-19T16:12:55.449Z,29.53
2023-06-19T16:13:55.433Z,29.51
2023-06-19T16:15:00.448Z,29.51
2023-06-19T16:15:55.439Z,29.46
2023-06-19T16:16:55.497Z,29.48
2023-06-19T16:17:55.426Z,29.46
2023-06-19T16:18:55.378Z,29.46
2023-06-19T16:19:55.370Z,29.48
2023-06-19T16:20:55.354Z,29.58
2023-06-19T16:21:55.355Z,29.52
2023-06-19T16:22:55.353Z,29.57
2023-06-19T16:23:55.412Z,29.55
2023-06-19T16:24:55.345Z,29.45
2023-06-19T16:26:00.336Z,29.57
2023-06-19T16:26:55.328Z,29.51
2023-06-19T16:27:55.288Z,29.52
2023-06-19T16:28:55.272Z,29.52
2023-06-19T16:29:55.297Z,29.53
2023-06-19T16:30:55.309Z,29.53
2023-06-19T16:32:08.131Z,29.58
2023-06-19T16:32:55.287Z,29.57
2023-06-19T16:33:55.218Z,29.61
2023-06-19T16:34:55.206Z,29.58
2023-06-19T16:35:55.255Z,29.70
2023-06-19T16:37:00.214Z,29.64
2023-06-19T16:37:55.221Z,29.70
2023-06-19T16:38:55.167Z,29.67
2023-06-19T16:39:55.193Z,29.55
2023-06-19T16:40:55.189Z,29.55
2023-06-19T16:41:55.192Z,29.46
2023-06-19T16:42:55.200Z,29.43
2023-06-19T16:43:55.112Z,29.30
2023-06-19T16:44:55.109Z,29.26
2023-06-19T16:45:55.098Z,29.24
2023-06-19T16:46:55.150Z,29.19
2023-06-19T16:48:00.177Z,29.21
2023-06-19T16:48:55.115Z,29.11
2023-06-19T16:49:55.056Z,29.05
2023-06-19T16:50:55.042Z,29.05
2023-06-19T16:51:55.032Z,29.08
2023-06-19T16:52:55.024Z,29.06
2023-06-19T16:53:55.008Z,29.04
2023-06-19T16:54:55.059Z,29.09
2023-06-19T16:55:55.009Z,29.11
2023-06-19T16:56:55.009Z,29.11
2023-06-19T16:57:54.966Z,29.05
2023-06-19T16:58:59.983Z,29.04
2023-06-19T16:59:54.962Z,29.09
2023-06-19T17:00:55.170Z,29.04
2023-06-19T17:01:54.990Z,29.09
2023-06-19T17:02:55.015Z,29.09
2023-06-19T17:03:54.969Z,29.09
2023-06-19T17:04:54.895Z,29.04
2023-06-19T17:05:54.876Z,28.93
2023-06-19T17:06:54.863Z,28.98
2023-06-19T17:07:54.857Z,28.98
2023-06-19T17:08:54.861Z,28.95
2023-06-19T17:09:59.935Z,29.00
2023-06-19T17:10:54.817Z,28.96
2023-06-19T17:11:54.810Z,28.96
2023-06-19T17:12:54.830Z,28.93
2023-06-19T17:13:54.804Z,28.96
2023-06-19T17:14:54.780Z,28.93
2023-06-19T17:15:54.831Z,28.93
2023-06-19T17:16:54.776Z,28.93
2023-06-19T17:17:54.791Z,28.95
2023-06-19T17:18:54.749Z,28.92
2023-06-19T17:19:54.730Z,28.88
2023-06-19T17:20:59.732Z,28.83
2023-06-19T17:21:54.744Z,28.81
2023-06-19T17:22:54.695Z,28.83
2023-06-19T17:23:54.706Z,28.88
2023-06-19T17:24:54.744Z,28.83
2023-06-19T17:25:54.652Z,28.86
2023-06-19T17:26:54.656Z,28.77
2023-06-19T17:27:54.745Z,28.85
2023-06-19T17:28:54.645Z,28.78
2023-06-19T17:29:54.632Z,28.83
2023-06-19T17:30:54.596Z,28.78
2023-06-19T17:31:59.616Z,28.83
2023-06-19T17:32:54.632Z,28.85
2023-06-19T17:33:54.632Z,28.81
2023-06-19T17:34:54.631Z,28.78
2023-06-19T17:35:54.555Z,28.81
2023-06-19T17:36:54.543Z,28.78
2023-06-19T17:37:54.542Z,28.80
2023-06-19T17:38:54.517Z,28.78
2023-06-19T17:39:54.575Z,28.81
2023-06-19T17:40:54.529Z,28.83
2023-06-19T17:41:54.546Z,28.89
2023-06-19T17:42:59.520Z,28.86
2023-06-19T17:43:54.465Z,28.80
2023-06-19T17:44:54.487Z,28.80
2023-06-19T17:45:54.458Z,28.86
2023-06-19T17:46:54.444Z,28.85
2023-06-19T17:47:54.554Z,28.74
2023-06-19T17:48:54.437Z,28.76
2023-06-19T17:49:54.418Z,28.74
2023-06-19T17:50:54.411Z,28.78
2023-06-19T17:51:54.389Z,28.74
2023-06-19T17:52:54.369Z,28.70